Time;durP1;ratioP1;P1;durP2;ratioP2;P2;SDS_P1;SDS_P2;PMS_P1;PMS_P2;Temp;Humidity;BMP_temperature;BMP_pressure;BME280_temperature;BME280_humidity;BME280_pressure;Samples;Min_cycle;Max_cycle;Signal;HPM_P1;HPM_P2
2022/12/31 00:02:11;;;;;;;19.05;13.45;;;;;;;15.24;53.47;100895.03;5075269;28;20048;-72
2022/12/31 00:04:41;;;;;;;18.67;13.57;;;;;;;15.21;53.40;100894.38;5075085;28;20575;-72
2022/12/31 00:07:10;;;;;;;20.55;13.05;;;;;;;15.18;53.51;100900.84;5075016;28;20119;-72
2022/12/31 00:09:38;;;;;;;19.48;13.40;;;;;;;15.16;53.60;100909.03;5074883;28;20052;-72
2022/12/31 00:12:06;;;;;;;19.98;12.80;;;;;;;15.13;53.45;100917.28;5074969;28;20459;-72
2022/12/31 00:14:35;;;;;;;18.35;12.75;;;;;;;15.12;53.43;100920.06;5075409;28;20438;-72
2022/12/31 00:17:03;;;;;;;18.52;12.88;;;;;;;15.09;53.56;100917.59;5073551;28;20516;-72
2022/12/31 00:19:31;;;;;;;19.88;13.45;;;;;;;15.05;53.55;100906.19;5074891;28;20066;-73
2022/12/31 00:22:01;;;;;;;19.98;13.48;;;;;;;15.02;53.71;100910.91;5074877;28;20094;-72
2022/12/31 00:24:29;;;;;;;18.08;12.10;;;;;;;15.02;53.59;100910.91;5073528;28;20473;-72
2022/12/31 00:26:58;;;;;;;16.30;12.35;;;;;;;15.00;53.73;100926.28;5074616;28;20063;-72
2022/12/31 00:29:26;;;;;;;16.23;12.40;;;;;;;14.96;53.68;100925.66;5074549;28;20124;-72
2022/12/31 00:31:54;;;;;;;17.88;12.60;;;;;;;14.92;53.73;100924.13;5074649;28;20118;-72
2022/12/31 00:34:22;;;;;;;17.95;12.48;;;;;;;14.89;53.77;100930.56;5074505;28;20044;-72
2022/12/31 00:36:50;;;;;;;16.00;11.80;;;;;;;14.88;53.81;100931.53;5074592;28;20443;-72
2022/12/31 00:39:20;;;;;;;17.67;12.63;;;;;;;14.86;53.72;100928.09;5074492;28;20482;-71
2022/12/31 00:41:48;;;;;;;16.33;11.73;;;;;;;14.84;53.81;100934.50;5074422;28;20097;-72
2022/12/31 00:44:16;;;;;;;17.83;11.82;;;;;;;14.81;53.87;100930.22;5073018;28;20459;-73
2022/12/31 00:46:44;;;;;;;17.13;12.07;;;;;;;14.79;53.83;100937.50;5074429;28;20091;-72
2022/12/31 00:49:11;;;;;;;17.80;12.13;;;;;;;14.77;53.88;100938.59;5074190;28;20047;-73
2022/12/31 00:51:40;;;;;;;16.65;12.30;;;;;;;14.75;53.83;100948.53;5074315;28;20059;-73
2022/12/31 00:54:08;;;;;;;15.70;11.85;;;;;;;14.73;53.76;100948.66;5072873;28;20068;-72
2022/12/31 00:56:38;;;;;;;17.15;12.45;;;;;;;14.70;53.95;100948.00;5074132;28;20076;-72
2022/12/31 00:59:06;;;;;;;18.25;12.60;;;;;;;14.68;53.99;100948.13;5072829;28;20068;-72
2022/12/31 01:01:37;;;;;;;17.48;11.68;;;;;;;14.66;53.96;100947.34;5072778;28;20097;-72
2022/12/31 01:04:08;;;;;;;16.42;11.10;;;;;;;14.64;53.78;100949.25;5072912;28;20119;-71
2022/12/31 01:06:37;;;;;;;16.60;12.15;;;;;;;14.59;54.00;100948.72;5073755;28;20493;-72
2022/12/31 01:09:06;;;;;;;17.58;11.48;;;;;;;14.60;53.99;100958.50;5072634;28;20052;-72
2022/12/31 01:11:35;;;;;;;16.73;11.85;;;;;;;14.59;54.00;100959.47;5073917;28;20071;-71
2022/12/31 01:14:06;;;;;;;17.50;12.02;;;;;;;14.56;53.91;100957.81;5073903;28;20048;-73
2022/12/31 01:16:37;;;;;;;15.15;11.23;;;;;;;14.54;54.02;100954.38;5072522;28;20041;-72
2022/12/31 01:19:07;;;;;;;16.05;11.00;;;;;;;14.53;53.92;100951.78;5073656;28;20094;-72
2022/12/31 01:21:37;;;;;;;15.98;10.88;;;;;;;14.50;53.92;100952.00;5073722;28;20071;-72
2022/12/31 01:24:07;;;;;;;15.35;11.10;;;;;;;14.48;53.94;100944.06;5073664;28;20144;-72
2022/12/31 01:26:36;;;;;;;17.20;11.23;;;;;;;14.47;53.94;100947.69;5073607;28;20109;-71
2022/12/31 01:29:06;;;;;;;18.10;12.23;;;;;;;14.47;53.96;100952.19;5073510;28;20048;-71
2022/12/31 01:31:36;;;;;;;16.58;11.27;;;;;;;14.44;54.05;100953.22;5073380;28;20086;-71
2022/12/31 01:34:04;;;;;;;17.13;10.95;;;;;;;14.42;54.16;100956.97;5073555;28;20045;-71
2022/12/31 01:36:34;;;;;;;17.20;11.70;;;;;;;14.40;54.02;100957.09;5073427;28;20048;-71
2022/12/31 01:39:05;;;;;;;15.18;10.68;;;;;;;14.38;54.04;100950.97;5073342;28;20443;-72
2022/12/31 01:41:36;;;;;;;17.65;11.07;;;;;;;14.36;53.80;100955.53;5073393;28;20052;-73
2022/12/31 01:44:37;;;;;;;17.88;11.25;;;;;;;14.36;54.05;100965.41;5073223;28;20051;-73
2022/12/31 01:47:13;;;;;;;15.85;10.57;;;;;;;14.33;54.14;100958.44;5072972;28;20074;-72
2022/12/31 01:49:47;;;;;;;13.48;10.25;;;;;;;14.30;54.05;100962.19;5073127;28;20500;-72
2022/12/31 01:52:18;;;;;;;;;;;;;;;14.29;54.17;100955.09;5073529;28;20071;-72
2022/12/31 01:54:50;;;;;;;15.02;10.75;;;;;;;14.27;54.18;100957.00;5073070;28;19931;-72
2022/12/31 01:57:19;;;;;;;15.18;10.13;;;;;;;14.25;54.09;100961.59;5072901;28;20051;-72
2022/12/31 01:59:47;;;;;;;15.02;10.48;;;;;;;14.23;54.15;100955.47;5071765;28;20044;-71
2022/12/31 02:02:17;;;;;;;14.05;9.98;;;;;;;14.23;54.07;100955.47;5072906;28;20044;-72
2022/12/31 02:04:46;;;;;;;15.55;10.13;;;;;;;14.22;54.13;100963.63;5072885;28;20048;-72
2022/12/31 02:07:14;;;;;;;13.90;9.50;;;;;;;14.17;54.30;100961.22;5072682;28;20398;-71
2022/12/31 02:09:44;;;;;;;14.57;10.20;;;;;;;14.17;54.27;100971.94;5072825;28;20044;-73
2022/12/31 02:12:13;;;;;;;15.27;10.13;;;;;;;14.16;54.38;100954.13;5072815;28;20045;-71
2022/12/31 02:14:43;;;;;;;15.98;10.75;;;;;;;14.15;54.32;100951.56;5072676;28;20463;-73
2022/12/31 02:17:25;;;;;;;14.35;9.93;;;;;;;14.13;54.25;100953.50;5072426;28;20432;-72
2022/12/31 02:20:19;;;;;;;14.05;9.75;;;;;;;14.10;54.34;100965.28;5072529;28;20048;-72
2022/12/31 02:23:17;;;;;;;17.17;10.05;;;;;;;14.09;54.32;100971.59;5069951;28;20117;-71
2022/12/31 02:26:07;;;;;;;14.25;9.88;;;;;;;14.05;54.33;100951.28;5072402;28;20044;-71
2022/12/31 02:28:53;;;;;;;15.02;10.13;;;;;;;14.06;54.32;100950.31;5072507;28;20059;-71
2022/12/31 02:31:30;;;;;;;15.82;9.60;;;;;;;14.04;54.44;100954.94;5072327;28;20095;-73
2022/12/31 02:34:06;;;;;;;14.15;9.60;;;;;;;14.02;54.15;100957.72;5072258;28;20048;-73
2022/12/31 02:36:37;;;;;;;15.80;9.93;;;;;;;14.02;54.28;100972.94;5072352;28;20048;-71
2022/12/31 02:39:07;;;;;;;14.27;9.38;;;;;;;14.00;54.26;100972.19;5072365;28;20052;-71
2022/12/31 02:41:51;;;;;;;13.68;9.48;;;;;;;13.99;54.33;100973.13;5072326;28;20049;-71
2022/12/31 02:44:23;;;;;;;;;;;;;;;13.97;54.38;100969.69;5072840;28;20047;-72
2022/12/31 02:47:02;;;;;;;13.75;9.40;;;;;;;13.96;54.27;100965.28;5072107;28;19920;-71
2022/12/31 02:49:40;;;;;;;14.85;9.77;;;;;;;13.93;54.25;100971.69;5072144;28;20048;-71
2022/12/31 02:52:15;;;;;;;14.85;9.32;;;;;;;13.92;54.44;100964.63;5072014;28;20041;-71
2022/12/31 02:54:51;;;;;;;14.50;9.38;;;;;;;13.92;54.49;100971.81;5072052;28;20094;-73
2022/12/31 02:57:26;;;;;;;14.05;9.40;;;;;;;13.90;54.47;100965.69;5071845;28;20370;-72
2022/12/31 03:02:48;;;;;;;14.20;9.48;;;;;;;13.87;54.48;100949.75;5071875;28;20071;-73
2022/12/31 03:05:18;;;;;;;15.18;9.55;;;;;;;13.84;54.51;100940.09;5071988;28;20041;-73
2022/12/31 03:07:46;;;;;;;16.00;9.45;;;;;;;13.85;54.43;100941.81;5071889;28;20123;-73
2022/12/31 03:10:16;;;;;;;16.15;9.52;;;;;;;13.83;54.50;100934.84;5071821;28;20508;-73
2022/12/31 03:12:46;;;;;;;13.60;8.90;;;;;;;13.82;54.84;100938.47;5071785;28;20052;-73
2022/12/31 03:15:21;;;;;;;13.32;9.18;;;;;;;13.79;54.36;100949.38;5071814;28;20064;-73
2022/12/31 03:17:54;;;;;;;15.07;9.13;;;;;;;13.78;54.53;100947.66;5071815;28;20071;-72
2022/12/31 03:23:15;;;;;;;15.35;9.23;;;;;;;13.75;54.52;100928.13;5071759;28;20048;-73
2022/12/31 03:25:42;;;;;;;15.63;9.98;;;;;;;13.74;54.58;100950.53;5071640;28;20090;-72
2022/12/31 03:28:13;;;;;;;13.40;9.07;;;;;;;13.74;54.66;100963.94;5073633;28;20048;-73
2022/12/31 03:30:43;;;;;;;13.63;9.07;;;;;;;13.72;54.48;100952.47;5074549;28;20059;-72
2022/12/31 03:33:13;;;;;;;15.50;10.23;;;;;;;13.72;54.61;100955.13;5075715;28;20048;-72
2022/12/31 03:35:43;;;;;;;14.68;9.48;;;;;;;13.71;54.70;100944.50;5075787;28;20493;-72
2022/12/31 03:38:11;;;;;;;14.68;9.20;;;;;;;13.68;54.56;100948.22;5075684;28;20044;-72
2022/12/31 03:40:43;;;;;;;14.48;9.73;;;;;;;13.68;54.64;100947.38;5075717;28;20189;-72
2022/12/31 03:43:12;;;;;;;14.55;9.50;;;;;;;13.66;54.57;100942.09;5075573;28;20393;-71
2022/12/31 03:45:40;;;;;;;14.27;9.50;;;;;;;13.63;54.77;100933.41;5075451;28;20059;-73
2022/12/31 03:48:09;;;;;;;14.05;9.30;;;;;;;13.65;54.66;100936.84;5075455;28;20044;-71
2022/12/31 03:50:39;;;;;;;15.70;9.88;;;;;;;13.62;54.81;100932.53;5075438;28;20049;-71
2022/12/31 03:53:07;;;;;;;14.57;9.20;;;;;;;13.62;54.79;100935.22;5075311;28;20131;-72
2022/12/31 03:55:35;;;;;;;15.18;9.35;;;;;;;13.61;54.79;100940.69;5075408;28;20048;-72
2022/12/31 03:58:03;;;;;;;14.50;9.27;;;;;;;13.59;54.83;100946.09;5075267;28;20051;-72
2022/12/31 04:00:32;;;;;;;15.75;9.48;;;;;;;13.58;54.80;100946.22;5075267;28;20040;-71
2022/12/31 04:03:00;;;;;;;14.93;9.35;;;;;;;13.56;54.85;100938.25;5075194;28;20044;-71
2022/12/31 04:05:28;;;;;;;14.38;9.13;;;;;;;13.57;54.89;100945.34;5075192;28;20102;-72
2022/12/31 04:07:58;;;;;;;16.98;9.88;;;;;;;13.53;54.94;100938.47;5075223;28;20045;-71
2022/12/31 04:10:26;;;;;;;15.82;9.57;;;;;;;13.53;54.92;100949.19;5074998;28;20040;-72
2022/12/31 04:12:55;;;;;;;14.38;8.90;;;;;;;13.52;54.81;100947.47;5074952;28;20048;-71
2022/12/31 04:15:23;;;;;;;14.98;9.27;;;;;;;13.51;54.98;100944.84;5074932;28;20052;-71
2022/12/31 04:17:56;;;;;;;14.32;8.52;;;;;;;13.51;54.74;100944.84;5074901;28;20598;-72
2022/12/31 04:20:24;;;;;;;15.13;9.75;;;;;;;13.50;54.94;100949.34;5074920;28;20153;-70
2022/12/31 04:22:53;;;;;;;14.20;8.88;;;;;;;13.48;54.89;100943.22;5074865;28;20102;-72
2022/12/31 04:25:22;;;;;;;15.77;9.27;;;;;;;13.47;54.72;100938.84;5074802;28;20048;-71
2022/12/31 04:27:50;;;;;;;14.60;8.77;;;;;;;13.45;54.85;100944.28;5073332;28;20048;-72
2022/12/31 04:30:19;;;;;;;14.95;9.35;;;;;;;13.45;54.88;100959.50;5074687;28;20131;-72
2022/12/31 04:32:47;;;;;;;14.85;9.05;;;;;;;13.43;54.93;100967.66;5074670;28;20090;-72
2022/12/31 04:35:15;;;;;;;14.98;9.10;;;;;;;13.44;54.89;100964.00;5074544;28;20045;-71
2022/12/31 04:37:43;;;;;;;14.68;8.88;;;;;;;13.44;54.86;100971.19;5074422;28;20045;-73
2022/12/31 04:40:12;;;;;;;15.23;9.13;;;;;;;13.48;54.79;100971.84;5074332;28;20052;-72
2022/12/31 04:42:41;;;;;;;16.33;8.95;;;;;;;13.53;55.05;100980.50;5074420;28;20642;-72
2022/12/31 04:45:10;;;;;;;13.75;8.38;;;;;;;13.63;55.02;100981.66;5074186;28;20064;-71
2022/12/31 04:47:38;;;;;;;15.65;9.07;;;;;;;13.71;55.21;100985.59;5074820;28;20048;-72
2022/12/31 04:50:07;;;;;;;12.90;8.15;;;;;;;13.83;55.01;100992.00;5074260;28;20123;-73
2022/12/31 04:52:36;;;;;;;14.48;8.75;;;;;;;13.95;54.84;100988.56;5074317;28;20406;-72
2022/12/31 04:55:10;;;;;;;15.05;8.90;;;;;;;14.06;54.82;100990.56;5072843;28;20478;-71
2022/12/31 04:57:38;;;;;;;13.27;8.75;;;;;;;14.18;54.80;100995.13;5074224;28;20045;-72
2022/12/31 05:00:10;;;;;;;14.00;8.45;;;;;;;14.29;54.52;101003.41;5074326;28;20068;-71
2022/12/31 05:02:38;;;;;;;13.55;8.73;;;;;;;14.40;54.42;101009.91;5074174;28;20448;-71
2022/12/31 05:05:07;;;;;;;13.20;8.25;;;;;;;14.51;54.39;101010.09;5074030;28;20048;-71
2022/12/31 05:07:35;;;;;;;14.25;8.27;;;;;;;14.62;54.38;101009.41;5072749;28;20048;-72
2022/12/31 05:10:05;;;;;;;12.65;8.45;;;;;;;14.73;54.17;101006.88;5073912;28;20052;-72
2022/12/31 05:12:33;;;;;;;13.43;8.20;;;;;;;14.81;54.00;101004.56;5073841;28;20098;-71
2022/12/31 05:15:01;;;;;;;14.65;9.20;;;;;;;14.92;54.11;101018.13;5074277;28;20470;-71
2022/12/31 05:17:30;;;;;;;14.77;8.43;;;;;;;15.01;54.03;101024.72;5073671;28;20191;-72
2022/12/31 05:19:59;;;;;;;14.05;8.23;;;;;;;15.11;53.92;101017.75;5073899;28;20056;-73
2022/12/31 05:22:30;;;;;;;14.65;8.75;;;;;;;15.20;53.73;101011.78;5074174;28;20049;-73
2022/12/31 05:24:59;;;;;;;12.63;8.25;;;;;;;15.33;53.71;101009.09;5073650;28;20044;-72
2022/12/31 05:27:29;;;;;;;13.52;8.50;;;;;;;15.42;53.62;101013.84;5073644;28;20454;-70
2022/12/31 05:29:58;;;;;;;14.77;8.65;;;;;;;15.52;53.49;101008.72;5073536;28;20048;-70
2022/12/31 05:32:26;;;;;;;13.15;8.35;;;;;;;15.60;53.42;101022.50;5073357;28;20048;-70
2022/12/31 05:34:56;;;;;;;12.93;8.32;;;;;;;15.63;53.30;101022.31;5073496;28;20036;-71
2022/12/31 05:37:24;;;;;;;15.27;8.93;;;;;;;15.66;53.22;101030.19;5073423;28;20048;-70
2022/12/31 05:39:52;;;;;;;13.73;8.75;;;;;;;15.68;53.32;101033.63;5072197;28;20197;-71
2022/12/31 05:42:21;;;;;;;13.73;8.40;;;;;;;15.67;53.25;101039.97;5073258;28;20050;-72
2022/12/31 05:44:49;;;;;;;15.25;8.63;;;;;;;15.63;53.37;101031.25;5073005;28;20063;-71
2022/12/31 05:47:17;;;;;;;13.18;8.27;;;;;;;15.64;53.52;101042.88;5073167;28;20044;-71
2022/12/31 05:49:45;;;;;;;14.93;8.38;;;;;;;15.60;53.39;101038.63;5073053;28;20488;-73
2022/12/31 05:52:15;;;;;;;15.98;9.38;;;;;;;15.59;53.40;101037.78;5071464;28;20044;-72
2022/12/31 05:54:43;;;;;;;15.48;8.68;;;;;;;15.56;53.43;101043.38;5073122;28;20048;-73
2022/12/31 05:57:11;;;;;;;16.40;9.50;;;;;;;15.52;53.50;101040.97;5072994;28;20040;-71
2022/12/31 05:59:39;;;;;;;15.48;9.05;;;;;;;15.49;53.50;101043.88;5073212;28;20044;-71
2022/12/31 06:02:08;;;;;;;14.38;8.55;;;;;;;15.45;53.59;101041.41;5073045;28;20444;-71
2022/12/31 06:04:36;;;;;;;13.63;8.25;;;;;;;15.41;53.59;101045.25;5072980;28;20555;-71
2022/12/31 06:07:04;;;;;;;13.52;8.18;;;;;;;15.38;53.58;101053.53;5072886;28;20048;-71
2022/12/31 06:09:33;;;;;;;16.70;9.50;;;;;;;15.35;53.68;101056.44;5072833;28;20037;-73
2022/12/31 06:12:02;;;;;;;14.73;8.73;;;;;;;15.31;53.71;101057.59;5072657;28;20041;-71
2022/12/31 06:14:30;;;;;;;16.02;9.07;;;;;;;15.27;53.71;101056.09;5072773;28;20052;-72
2022/12/31 06:16:58;;;;;;;16.75;9.38;;;;;;;15.23;53.78;101049.19;5072687;28;20053;-72
2022/12/31 06:19:26;;;;;;;14.98;8.32;;;;;;;15.21;53.66;101044.88;5072730;28;20052;-71
2022/12/31 06:21:54;;;;;;;14.40;8.80;;;;;;;15.16;53.77;101042.53;5072577;28;20080;-71
2022/12/31 06:24:23;;;;;;;15.57;9.13;;;;;;;15.13;53.71;101048.94;5072373;28;20040;-71
2022/12/31 06:26:52;;;;;;;17.58;9.77;;;;;;;15.10;53.79;101043.78;5072375;28;20444;-71
2022/12/31 06:29:20;;;;;;;16.65;9.35;;;;;;;15.06;53.70;101046.78;5072404;28;20068;-71
2022/12/31 06:31:48;;;;;;;14.18;8.85;;;;;;;15.05;53.72;101053.09;5072377;28;20041;-71
2022/12/31 06:34:17;;;;;;;16.58;9.77;;;;;;;15.00;53.83;101055.25;5072239;28;20397;-71
2022/12/31 06:36:45;;;;;;;15.40;8.93;;;;;;;14.97;53.87;101060.81;5072325;28;20044;-71
2022/12/31 06:39:13;;;;;;;16.25;9.10;;;;;;;14.94;54.03;101053.81;5072200;28;20057;-70
2022/12/31 06:41:42;;;;;;;16.67;9.00;;;;;;;14.89;53.98;101059.50;5072251;28;20052;-71
2022/12/31 06:44:11;;;;;;;16.02;9.00;;;;;;;14.86;53.87;101073.13;5072138;28;20504;-71
2022/12/31 06:46:39;;;;;;;16.92;9.20;;;;;;;14.83;53.91;101084.06;5072021;28;20056;-71
2022/12/31 06:49:08;;;;;;;14.15;8.15;;;;;;;14.80;54.00;101073.50;5072193;28;20094;-72
2022/12/31 06:51:36;;;;;;;15.88;8.90;;;;;;;14.75;53.89;101067.56;5072047;28;20059;-71
2022/12/31 06:54:04;;;;;;;15.80;9.20;;;;;;;14.74;53.97;101079.28;5071975;28;20073;-73
2022/12/31 06:56:33;;;;;;;15.20;9.10;;;;;;;14.70;53.98;101069.69;5071898;28;20044;-71
2022/12/31 06:59:03;;;;;;;16.85;8.98;;;;;;;14.68;53.99;101073.47;5071989;28;20141;-72
2022/12/31 07:01:43;;;;;;;17.58;9.30;;;;;;;14.64;53.99;101067.41;5070222;28;20057;-72
2022/12/31 07:04:38;;;;;;;16.35;9.60;;;;;;;14.58;54.02;101073.19;5071702;28;20131;-72
2022/12/31 07:07:11;;;;;;;14.77;8.85;;;;;;;14.56;53.96;101081.31;5071787;28;20040;-72
2022/12/31 07:09:49;;;;;;;15.63;8.80;;;;;;;14.54;54.01;101077.00;5071946;28;20455;-73
2022/12/31 07:12:30;;;;;;;15.27;9.00;;;;;;;14.51;54.15;101093.31;5071580;28;20040;-72
2022/12/31 07:15:04;;;;;;;15.95;9.50;;;;;;;14.49;54.03;101096.09;5071796;28;20059;-72
2022/12/31 07:17:41;;;;;;;16.42;9.18;;;;;;;14.46;54.16;101092.72;5070433;28;20609;-72
2022/12/31 07:20:12;;;;;;;14.88;9.13;;;;;;;14.44;54.14;101102.66;5072162;28;20054;-72
2022/12/31 07:22:41;;;;;;;17.40;9.68;;;;;;;14.40;54.24;101107.38;5071891;28;20177;-73
2022/12/31 07:25:13;;;;;;;14.07;8.75;;;;;;;14.38;54.09;101103.94;5070391;28;20131;-71
2022/12/31 07:27:58;;;;;;;16.48;9.20;;;;;;;14.37;54.35;101102.19;5071762;28;20044;-71
2022/12/31 07:30:36;;;;;;;16.10;8.20;;;;;;;14.34;54.31;101097.00;5071706;28;20123;-71
2022/12/31 07:33:33;;;;;;;16.05;9.20;;;;;;;14.30;54.25;101091.00;5071565;28;20680;-72
2022/12/31 07:36:14;;;;;;;17.08;9.38;;;;;;;14.29;54.35;101088.41;5064874;28;20067;-69
2022/12/31 07:38:50;;;;;;;15.98;9.32;;;;;;;14.24;54.32;101086.00;5070264;28;20131;-70
2022/12/31 07:41:31;;;;;;;15.70;9.40;;;;;;;14.23;54.24;101092.31;5071682;28;20044;-71
2022/12/31 07:44:05;;;;;;;15.23;9.52;;;;;;;14.21;54.24;101096.94;5071556;28;20090;-70
2022/12/31 07:46:40;;;;;;;16.60;9.18;;;;;;;14.19;54.41;101109.59;5069951;28;20498;-72
2022/12/31 07:49:13;;;;;;;16.38;9.60;;;;;;;14.16;54.29;101116.94;5071590;28;20044;-72
2022/12/31 07:51:42;;;;;;;15.95;9.15;;;;;;;14.14;54.31;101113.50;5071477;28;20494;-72
2022/12/31 07:54:10;;;;;;;18.23;9.73;;;;;;;14.14;54.36;101116.19;5071549;28;20044;-71
2022/12/31 07:56:42;;;;;;;17.55;9.82;;;;;;;14.12;54.44;101113.59;5071542;28;20048;-71
2022/12/31 07:59:20;;;;;;;18.60;10.50;;;;;;;14.09;54.40;101116.47;5070127;28;20049;-71
2022/12/31 08:01:59;;;;;;;18.58;10.02;;;;;;;14.08;54.37;101122.75;5071397;28;20044;-70
2022/12/31 08:04:39;;;;;;;15.38;9.05;;;;;;;14.07;54.42;101123.72;5071262;28;20055;-71
2022/12/31 08:07:28;;;;;;;16.20;9.27;;;;;;;14.04;54.54;101126.59;5071296;28;20462;-70
2022/12/31 08:10:07;;;;;;;16.25;9.10;;;;;;;14.02;54.64;101123.16;5071431;28;20090;-71
2022/12/31 08:12:46;;;;;;;15.18;9.40;;;;;;;13.99;54.42;101134.94;5071107;28;20485;-71
2022/12/31 08:15:17;;;;;;;16.02;9.75;;;;;;;14.01;54.47;101148.25;5073303;28;20402;-74
2022/12/31 08:17:46;;;;;;;15.52;9.30;;;;;;;13.99;54.63;101134.06;5075730;28;20036;-69
2022/12/31 08:20:17;;;;;;;16.58;9.95;;;;;;;13.97;54.58;101130.59;5075911;28;20045;-69
2022/12/31 08:23:14;;;;;;;15.98;9.63;;;;;;;13.96;54.67;101139.59;5073496;28;20068;-69
2022/12/31 08:25:57;;;;;;;17.35;9.73;;;;;;;13.96;54.63;101158.38;5074810;28;20579;-69
2022/12/31 08:28:32;;;;;;;;;;;;;;;13.94;54.61;101160.31;5075169;28;20044;-69
2022/12/31 08:31:03;;;;;;;15.27;9.07;;;;;;;13.91;54.68;101169.41;5068168;28;19920;-69
2022/12/31 08:33:40;;;;;;;15.35;8.75;;;;;;;13.90;54.59;101174.88;5072467;28;20067;-69
2022/12/31 08:36:18;;;;;;;16.55;9.13;;;;;;;13.89;54.60;101176.66;5063229;28;20048;-69
2022/12/31 08:38:54;;;;;;;16.38;9.40;;;;;;;13.88;54.57;101179.44;5074444;28;20504;-69
2022/12/31 08:41:29;;;;;;;16.13;9.35;;;;;;;13.86;54.71;101175.97;5074539;28;20560;-69
2022/12/31 08:44:10;;;;;;;17.13;10.02;;;;;;;13.87;54.82;101177.69;5074404;28;20052;-70
2022/12/31 08:46:46;;;;;;;16.42;9.70;;;;;;;13.85;54.76;101179.63;5072818;28;20562;-70
2022/12/31 08:49:14;;;;;;;16.23;9.48;;;;;;;13.84;54.73;101192.16;5095619;28;20053;-69
2022/12/31 08:51:45;;;;;;;16.95;10.18;;;;;;;13.85;54.73;101193.03;5072590;28;20040;-70
2022/12/31 08:54:14;;;;;;;18.02;10.55;;;;;;;13.82;54.76;101204.81;5067389;28;20478;-68
2022/12/31 08:56:49;;;;;;;19.27;10.77;;;;;;;13.82;54.86;101196.75;5054003;28;20049;-71
2022/12/31 08:59:29;;;;;;;18.73;9.95;;;;;;;13.82;54.77;101193.22;5052741;28;20115;-71
2022/12/31 09:02:18;;;;;;;15.82;9.82;;;;;;;13.83;55.01;101197.63;5054268;28;20432;-68
2022/12/31 09:05:00;;;;;;;16.83;9.68;;;;;;;13.80;54.88;101187.06;5054272;28;20060;-69
2022/12/31 09:07:36;;;;;;;18.13;10.50;;;;;;;13.82;54.87;101195.91;5053964;28;20120;-70
2022/12/31 09:10:15;;;;;;;18.42;11.07;;;;;;;13.79;54.75;101198.75;5054173;28;20144;-71
2022/12/31 09:12:58;;;;;;;18.83;10.57;;;;;;;13.80;54.90;101197.78;5087708;28;20056;-71
2022/12/31 09:15:33;;;;;;;18.60;10.75;;;;;;;13.78;54.88;101191.66;5073972;28;20113;-71
2022/12/31 09:18:02;;;;;;;18.42;10.27;;;;;;;13.77;54.78;101184.56;5067197;28;20048;-71
2022/12/31 09:20:33;;;;;;;15.73;9.45;;;;;;;13.75;54.85;101173.94;5058769;28;20561;-70
2022/12/31 09:23:13;;;;;;;18.17;10.18;;;;;;;13.76;54.97;101189.06;5085922;28;20052;-70
2022/12/31 09:25:51;;;;;;;17.02;10.23;;;;;;;13.74;55.00;101183.81;5052794;28;20045;-70
2022/12/31 09:28:33;;;;;;;17.33;10.32;;;;;;;13.73;54.98;101182.06;5053478;28;20097;-70
2022/12/31 09:31:05;;;;;;;18.42;10.45;;;;;;;13.71;54.91;101180.44;5053674;28;20137;-70
2022/12/31 09:33:42;;;;;;;19.80;10.27;;;;;;;13.72;54.86;101175.00;5070746;28;20114;-70
2022/12/31 09:36:18;;;;;;;19.38;10.80;;;;;;;13.71;55.00;101170.59;5073487;28;20288;-70
2022/12/31 09:38:56;;;;;;;17.50;9.80;;;;;;;13.70;54.93;101157.25;5073492;28;20040;-71
2022/12/31 09:41:57;;;;;;;15.82;9.80;;;;;;;13.68;55.14;101162.69;5070424;28;20045;-71
2022/12/31 09:45:06;;;;;;;18.30;10.30;;;;;;;13.69;55.07;101159.06;5068182;28;20041;-72
2022/12/31 09:48:06;;;;;;;19.75;10.82;;;;;;;13.66;55.26;101135.13;5054253;28;20041;-71
2022/12/31 09:50:56;;;;;;;18.00;10.75;;;;;;;13.67;55.21;101139.53;5052086;28;20577;-74
2022/12/31 09:53:38;;;;;;;16.60;10.30;;;;;;;13.67;55.28;101131.47;5052094;28;20037;-71
2022/12/31 09:56:15;;;;;;;18.65;10.55;;;;;;;13.65;55.24;101129.84;5053448;28;20049;-73
2022/12/31 09:58:53;;;;;;;19.17;10.35;;;;;;;13.64;55.18;101118.28;5053182;28;20049;-71
2022/12/31 10:01:30;;;;;;;18.15;10.05;;;;;;;13.64;55.42;101134.34;5052953;28;20124;-73
2022/12/31 10:04:33;;;;;;;17.55;10.73;;;;;;;13.63;55.25;101127.28;5051692;28;20490;-73
2022/12/31 10:07:18;;;;;;;18.30;10.75;;;;;;;13.60;55.47;101105.97;5051780;28;20049;-72
2022/12/31 10:09:58;;;;;;;18.58;10.55;;;;;;;13.62;55.42;101117.50;5052780;28;20048;-72
2022/12/31 10:13:08;;;;;;;18.92;10.65;;;;;;;13.63;55.57;101121.03;5052667;28;20053;-72
2022/12/31 10:16:02;;;;;;;19.15;11.02;;;;;;;13.64;55.66;101129.00;5041675;28;20068;-71
2022/12/31 10:18:50;;;;;;;18.10;10.55;;;;;;;13.63;55.49;101127.28;5061166;28;20048;-72
2022/12/31 10:21:37;;;;;;;19.73;10.77;;;;;;;13.64;55.72;101128.13;5070395;28;20098;-71
2022/12/31 10:24:23;;;;;;;16.85;10.10;;;;;;;13.60;55.83;101119.38;5072547;28;20049;-70
2022/12/31 10:27:04;;;;;;;17.13;10.57;;;;;;;13.63;55.75;101127.28;5072269;28;20044;-71
2022/12/31 10:29:45;;;;;;;17.85;10.77;;;;;;;13.62;55.73;101130.03;5072419;28;20050;-72
2022/12/31 10:32:18;;;;;;;19.50;11.25;;;;;;;13.61;55.80;101123.81;5072630;28;20051;-71
2022/12/31 10:35:11;;;;;;;18.42;10.20;;;;;;;13.60;55.67;101124.75;5070935;28;20150;-69
2022/12/31 10:37:43;;;;;;;;;;;;;;;13.60;55.82;101126.56;5072815;28;20082;-72
2022/12/31 10:40:23;;;;;;;17.33;10.65;;;;;;;13.58;55.65;101113.25;5072436;28;20011;-71
2022/12/31 10:43:46;;;;;;;17.50;10.20;;;;;;;13.58;55.93;101140.06;5072281;28;20052;-71
2022/12/31 10:46:40;;;;;;;18.25;10.10;;;;;;;13.58;55.64;101142.75;5064466;28;20060;-71
2022/12/31 10:49:48;;;;;;;17.60;10.65;;;;;;;13.57;55.78;101126.75;5070730;28;20103;-71
2022/12/31 10:52:47;;;;;;;18.48;10.77;;;;;;;13.56;55.86;101125.91;5060281;28;20047;-72
2022/12/31 10:56:08;;;;;;;19.95;10.85;;;;;;;13.54;55.81;101126.94;5072093;28;20397;-71
2022/12/31 10:58:53;;;;;;;19.73;10.88;;;;;;;13.55;55.90;101118.81;5064301;28;20528;-71
2022/12/31 11:01:33;;;;;;;18.17;10.82;;;;;;;13.54;55.99;101109.03;5071902;28;20048;-71
2022/12/31 11:04:31;;;;;;;19.17;10.98;;;;;;;13.55;56.07;101109.91;5071874;28;20045;-71
2022/12/31 11:07:37;;;;;;;21.73;11.73;;;;;;;13.54;55.95;101114.41;5071769;28;20143;-71
2022/12/31 11:10:41;;;;;;;18.23;10.73;;;;;;;13.55;56.05;101107.22;5071988;28;20127;-71
2022/12/31 11:13:40;;;;;;;18.83;11.15;;;;;;;13.51;55.88;101130.69;5071729;28;20044;-72
2022/12/31 11:16:24;;;;;;;17.52;10.73;;;;;;;13.51;55.83;101111.91;5071489;28;20048;-71
2022/12/31 11:19:01;;;;;;;19.17;11.55;;;;;;;13.52;56.11;101113.63;5071725;28;20036;-71
2022/12/31 11:21:45;;;;;;;21.75;11.88;;;;;;;13.50;55.95;101104.81;5071717;28;20059;-70
2022/12/31 11:24:26;;;;;;;20.25;12.63;;;;;;;13.50;56.05;101110.16;5071817;28;20044;-71
2022/12/31 11:27:07;;;;;;;20.48;11.38;;;;;;;13.50;56.01;101098.59;5071605;28;20045;-71
2022/12/31 11:29:48;;;;;;;19.48;11.57;;;;;;;13.51;56.08;101111.03;5071480;28;20044;-71
2022/12/31 11:32:32;;;;;;;19.27;10.95;;;;;;;13.50;56.17;101117.34;5071733;28;20041;-71
2022/12/31 11:35:18;;;;;;;19.10;11.55;;;;;;;13.46;56.04;101108.63;5071565;28;20072;-71
2022/12/31 11:37:49;;;;;;;19.80;11.93;;;;;;;13.47;56.19;101110.34;5071579;28;20044;-71
2022/12/31 11:40:40;;;;;;;20.52;11.95;;;;;;;13.48;56.00;101112.06;5071485;28;20052;-72
2022/12/31 11:43:22;;;;;;;19.75;11.77;;;;;;;13.46;56.22;101108.63;5071397;28;20105;-71
2022/12/31 11:46:32;;;;;;;20.42;11.48;;;;;;;13.47;56.03;101110.34;5071284;28;20057;-71
2022/12/31 11:49:19;;;;;;;21.65;12.07;;;;;;;13.46;56.22;101105.94;5073083;28;20041;-71
2022/12/31 11:52:19;;;;;;;20.60;11.80;;;;;;;13.46;56.22;101087.19;5075422;28;20486;-71
2022/12/31 11:55:03;;;;;;;21.25;12.73;;;;;;;13.43;56.15;101076.66;5059013;28;20425;-71
2022/12/31 11:57:34;;;;;;;19.90;12.02;;;;;;;13.45;56.32;101085.47;5074193;28;20044;-72